createdAt,value
2022-08-12T00:00:52.269Z,102248.59
2022-08-12T00:03:41.388Z,102249.47
2022-08-12T00:06:27.823Z,102242.88
2022-08-12T00:09:13.040Z,102238.91
2022-08-12T00:11:58.655Z,102243.13
2022-08-12T00:14:43.897Z,102229.81
2022-08-12T00:17:30.475Z,102228.19
2022-08-12T00:20:15.709Z,102230.72
2022-08-12T00:23:02.459Z,102227.06
2022-08-12T00:26:21.298Z,102232.19
2022-08-12T00:29:09.482Z,102226.88
2022-08-12T00:31:54.769Z,102226.88
2022-08-12T00:34:40.005Z,102232.09
2022-08-12T00:37:25.143Z,102236.59
2022-08-12T00:40:13.973Z,102225.28
2022-08-12T00:42:42.272Z,102223.66
2022-08-12T00:45:10.347Z,102213.13
2022-08-12T00:47:38.371Z,102205.13
2022-08-12T00:50:06.822Z,102209.06
2022-08-12T00:52:35.573Z,102201.81
2022-08-12T00:55:04.484Z,102203.09
2022-08-12T00:57:37.137Z,102201.25
2022-08-12T01:00:14.657Z,102189.03
2022-08-12T01:02:46.335Z,102191.69
2022-08-12T01:05:37.118Z,102185.31
2022-08-12T01:08:23.718Z,102181.50
2022-08-12T01:11:09.390Z,102184.19
2022-08-12T01:13:41.607Z,102181.88
2022-08-12T01:16:09.562Z,102183.31
2022-08-12T01:18:38.821Z,102181.91
2022-08-12T01:21:34.270Z,102174.91
2022-08-12T01:24:28.113Z,102173.44
2022-08-12T01:26:58.369Z,102167.44
2022-08-12T01:29:29.979Z,102166.28
2022-08-12T01:32:05.368Z,102181.56
2022-08-12T01:34:37.575Z,102170.03
2022-08-12T01:37:07.609Z,102170.25
2022-08-12T01:40:36.149Z,102169.38
2022-08-12T01:42:34.090Z,102159.63
2022-08-12T01:45:02.974Z,102160.47
2022-08-12T01:47:49.654Z,102158.94
2022-08-12T01:50:16.763Z,102143.13
2022-08-12T01:52:59.854Z,102139.34
2022-08-12T01:55:34.548Z,102136.78
2022-08-12T01:58:18.154Z,102136.50
2022-08-12T02:00:59.020Z,102135.03
2022-08-12T02:04:16.855Z,102125.41
2022-08-12T02:07:11.258Z,102134.56
2022-08-12T02:10:50.591Z,102126.84
2022-08-12T02:13:14.181Z,102132.44
2022-08-12T02:16:08.969Z,102129.69
2022-08-12T02:19:22.594Z,102115.28
2022-08-12T02:22:06.421Z,102109.81
2022-08-12T02:24:34.651Z,102106.16
2022-08-12T02:27:04.465Z,102100.13
2022-08-12T02:29:31.475Z,102104.72
2022-08-12T02:31:59.324Z,102101.59
2022-08-12T02:34:26.232Z,102103.16
2022-08-12T02:36:57.603Z,102106.69
2022-08-12T02:39:33.675Z,102097.63
2022-08-12T02:42:04.290Z,102093.53
2022-08-12T02:44:37.569Z,102094.00
2022-08-12T02:47:07.241Z,102100.16
2022-08-12T02:49:53.047Z,102090.50
2022-08-12T02:52:20.854Z,102096.91
2022-08-12T02:54:51.357Z,102092.44
2022-08-12T02:57:20.700Z,102094.56
2022-08-12T02:59:49.670Z,102092.63
2022-08-12T03:02:20.105Z,102086.78
2022-08-12T03:04:54.094Z,102083.09
2022-08-12T03:07:20.955Z,102081.25
2022-08-12T03:10:16.129Z,102080.84
2022-08-12T03:12:49.504Z,102075.00
2022-08-12T03:15:23.947Z,102076.69
2022-08-12T03:18:27.668Z,102073.31
2022-08-12T03:21:00.310Z,102072.00
2022-08-12T03:23:31.087Z,102070.41
2022-08-12T03:26:03.386Z,102071.78
2022-08-12T03:28:51.138Z,102067.69
2022-08-12T03:31:37.253Z,102070.09
2022-08-12T03:34:10.197Z,102077.28
2022-08-12T03:36:39.514Z,102073.53
2022-08-12T03:39:18.098Z,102070.69
2022-08-12T03:41:59.316Z,102071.66
2022-08-12T03:44:53.626Z,102071.16
2022-08-12T03:47:58.228Z,102066.63
2022-08-12T03:50:44.448Z,102066.13
2022-08-12T03:53:30.239Z,102063.22
2022-08-12T03:56:15.403Z,102065.16
2022-08-12T03:59:00.656Z,102073.91
2022-08-12T04:01:27.711Z,102071.16
2022-08-12T04:03:55.106Z,102078.56
2022-08-12T04:06:34.917Z,102074.56
2022-08-12T04:09:15.599Z,102068.84
2022-08-12T04:12:04.417Z,102071.88
2022-08-12T04:14:32.565Z,102066.31
2022-08-12T04:16:59.862Z,102064.38
2022-08-12T04:19:27.352Z,102068.97
2022-08-12T04:22:02.071Z,102067.22
2022-08-12T04:24:34.119Z,102056.97
2022-08-12T04:27:00.792Z,102053.66
2022-08-12T04:30:21.225Z,102048.97
2022-08-12T04:32:14.261Z,102054.44
2022-08-12T04:34:41.849Z,102057.38
2022-08-12T04:37:08.852Z,102060.16
2022-08-12T04:39:38.082Z,102059.69
2022-08-12T04:42:05.023Z,102065.09
2022-08-12T04:44:32.265Z,102064.50
2022-08-12T04:46:58.912Z,102058.81
2022-08-12T04:49:27.071Z,102054.16
2022-08-12T04:51:59.144Z,102051.38
2022-08-12T04:54:27.536Z,102048.31
2022-08-12T04:57:04.026Z,102059.16
2022-08-12T04:59:43.712Z,102049.38
2022-08-12T05:02:20.377Z,102050.50
2022-08-12T05:04:51.732Z,102051.28
2022-08-12T05:07:24.275Z,102030.50
2022-08-12T05:09:58.967Z,102034.25
2022-08-12T05:12:28.445Z,102031.28
2022-08-12T05:14:55.160Z,102042.00
2022-08-12T05:17:21.845Z,102032.44
2022-08-12T05:19:54.346Z,102029.66
2022-08-12T05:22:24.028Z,102033.09
2022-08-12T05:24:51.207Z,102026.28
2022-08-12T05:27:17.989Z,102033.97
2022-08-12T05:30:05.529Z,102025.88
2022-08-12T05:32:36.567Z,102035.03
2022-08-12T05:35:06.613Z,102034.63
2022-08-12T05:37:34.941Z,102045.88
2022-08-12T05:40:10.079Z,102044.44
2022-08-12T05:42:38.302Z,102051.06
2022-08-12T05:45:06.147Z,102059.16
2022-08-12T05:47:40.683Z,102073.78
2022-08-12T05:50:20.139Z,102083.53
2022-08-12T05:52:47.925Z,102094.84
2022-08-12T05:55:15.317Z,102106.63
2022-08-12T05:57:42.202Z,102120.19
2022-08-12T06:00:09.372Z,102124.00
2022-08-12T06:02:36.135Z,102145.91
2022-08-12T06:05:02.984Z,102155.78
2022-08-12T06:07:59.848Z,102159.97
2022-08-12T06:10:17.832Z,102172.72
2022-08-12T06:13:06.907Z,102181.03
2022-08-12T06:15:39.875Z,102193.69
2022-08-12T06:18:14.011Z,102203.59
2022-08-12T06:20:43.646Z,102217.38
2022-08-12T06:23:11.940Z,102222.44
2022-08-12T06:25:38.864Z,102221.19
2022-08-12T06:28:17.296Z,102221.72
2022-08-12T06:30:57.306Z,102221.50
2022-08-12T06:33:59.684Z,102207.44
2022-08-12T06:36:21.082Z,102170.53
2022-08-12T06:38:49.073Z,102143.63
2022-08-12T06:41:34.720Z,102091.00
2022-08-12T06:44:06.921Z,102091.75
2022-08-12T06:46:36.850Z,102007.59
2022-08-12T06:49:04.571Z,101977.06
2022-08-12T06:51:32.552Z,101941.16
2022-08-12T06:54:01.359Z,102006.56
2022-08-12T06:56:59.805Z,102056.09
2022-08-12T06:59:15.823Z,102003.47
2022-08-12T07:01:50.782Z,102042.28
2022-08-12T07:04:36.709Z,102038.22
2022-08-12T07:07:07.180Z,102053.59
2022-08-12T07:10:06.761Z,102074.84
2022-08-12T07:12:22.098Z,102143.16
2022-08-12T07:14:51.501Z,102102.94
2022-08-12T07:17:18.810Z,102119.13
2022-08-12T07:19:48.904Z,102148.25
2022-08-12T07:22:16.236Z,102205.19
2022-08-12T07:24:43.159Z,102220.88
2022-08-12T07:27:10.093Z,102218.44
2022-08-12T07:30:03.862Z,102212.13
2022-08-12T07:32:24.679Z,102245.34
2022-08-12T07:34:56.432Z,102251.22
2022-08-12T07:37:23.686Z,102252.38
2022-08-12T07:39:59.800Z,102256.59
2022-08-12T07:42:28.463Z,102250.84
2022-08-12T07:44:56.379Z,102255.47
2022-08-12T07:47:24.269Z,102268.81
2022-08-12T07:50:04.638Z,102249.78
2022-08-12T07:52:38.546Z,102232.47
2022-08-12T07:55:06.625Z,102253.63
2022-08-12T07:57:34.810Z,102247.34
2022-08-12T08:00:05.734Z,102246.84
2022-08-12T08:02:33.861Z,102259.78
2022-08-12T08:05:00.744Z,102245.47
2022-08-12T08:07:30.565Z,102243.56
2022-08-12T08:10:00.077Z,102258.16
2022-08-12T08:12:46.962Z,102230.19
2022-08-12T08:15:15.102Z,102249.88
2022-08-12T08:17:56.528Z,102253.03
2022-08-12T08:20:28.380Z,102219.50
2022-08-12T08:22:59.665Z,102218.09
2022-08-12T08:25:38.729Z,102200.53
2022-08-12T08:28:11.679Z,102210.25
2022-08-12T08:30:44.504Z,102204.69
2022-08-12T08:33:23.759Z,102213.38
2022-08-12T08:36:02.253Z,102205.69
2022-08-12T08:38:32.138Z,102194.72
2022-08-12T08:42:15.751Z,102189.69
2022-08-12T08:44:12.080Z,102177.50
2022-08-12T08:46:40.638Z,102184.50
2022-08-12T08:49:08.301Z,102192.16
2022-08-12T08:51:35.303Z,102138.16
2022-08-12T08:54:02.366Z,102137.47
2022-08-12T08:56:30.276Z,102134.44
2022-08-12T08:58:57.998Z,102145.41
2022-08-12T09:01:37.407Z,102127.81
2022-08-12T09:05:08.017Z,102101.91
2022-08-12T09:12:55.105Z,102088.25
2022-08-12T09:18:11.895Z,102097.38
2022-08-12T09:20:42.414Z,102042.97
2022-08-12T09:24:01.231Z,102040.28
2022-08-12T09:26:04.113Z,102024.09
2022-08-12T09:28:38.049Z,102071.59
2022-08-12T09:32:03.760Z,102040.88
2022-08-12T09:34:27.873Z,102026.78
2022-08-12T09:37:00.506Z,102052.06
2022-08-12T09:40:06.242Z,102004.41
2022-08-12T09:42:43.491Z,102004.16
2022-08-12T09:45:24.174Z,102030.22
2022-08-12T09:48:10.498Z,102016.78
2022-08-12T09:50:55.281Z,102058.56
2022-08-12T09:53:36.577Z,102048.84
2022-08-12T09:56:57.139Z,102021.00
2022-08-12T09:59:01.908Z,102014.22
2022-08-12T10:01:34.494Z,102016.50
2022-08-12T10:04:11.960Z,102030.31
2022-08-12T10:06:55.615Z,102029.56
2022-08-12T10:09:28.711Z,102003.41
2022-08-12T10:12:33.109Z,101944.78
2022-08-12T10:15:04.055Z,101979.34
2022-08-12T10:17:33.136Z,102030.84
2022-08-12T10:20:01.670Z,102042.75
2022-08-12T10:22:39.347Z,102035.59
2022-08-12T10:26:35.368Z,102014.38
2022-08-12T10:28:36.046Z,102059.44
2022-08-12T10:31:05.508Z,102012.00
2022-08-12T10:33:55.700Z,102021.22
2022-08-12T10:36:21.646Z,102013.50
2022-08-12T10:40:01.532Z,102011.03
2022-08-12T10:42:13.657Z,101977.59
2022-08-12T10:44:40.301Z,101996.56
2022-08-12T10:47:26.528Z,101974.47
2022-08-12T10:50:06.864Z,101983.53
2022-08-12T10:52:47.095Z,101999.19
2022-08-12T10:55:15.739Z,102026.63
2022-08-12T10:58:15.560Z,102011.84
2022-08-12T11:00:35.828Z,102036.88
2022-08-12T11:04:27.369Z,102009.25
2022-08-12T11:07:09.590Z,101959.88
2022-08-12T11:08:47.299Z,101981.06
2022-08-12T11:12:08.325Z,101990.59
2022-08-12T11:14:09.861Z,102025.72
2022-08-12T11:17:34.541Z,102026.63
2022-08-12T11:19:45.548Z,101954.16
2022-08-12T11:22:13.032Z,101929.34
2022-08-12T11:24:41.115Z,101957.09
2022-08-12T11:27:17.914Z,101985.94
2022-08-12T11:30:01.738Z,101974.31
2022-08-12T11:32:31.607Z,101992.84
2022-08-12T11:35:06.772Z,102024.72
2022-08-12T11:37:57.963Z,102007.06
2022-08-12T11:40:22.368Z,101876.50
2022-08-12T11:42:50.105Z,101985.25
2022-08-12T11:45:19.680Z,101991.13
2022-08-12T11:47:46.423Z,102046.97
2022-08-12T11:50:19.206Z,101964.97
2022-08-12T11:53:02.373Z,101974.50
2022-08-12T11:55:29.801Z,101969.13
2022-08-12T11:58:19.685Z,102017.94
2022-08-12T12:03:44.218Z,102007.03
2022-08-12T12:06:17.114Z,101959.53
2022-08-12T12:08:50.981Z,101958.84
2022-08-12T12:11:19.923Z,102015.66
2022-08-12T12:14:07.903Z,102010.94
2022-08-12T12:16:39.602Z,101993.88
2022-08-12T12:19:08.831Z,102026.16
2022-08-12T12:21:46.952Z,101930.16
2022-08-12T12:24:21.317Z,101949.97
2022-08-12T12:27:00.931Z,101989.72
2022-08-12T12:30:17.722Z,101969.13
2022-08-12T12:32:18.639Z,102002.34
2022-08-12T12:35:17.840Z,101993.22
2022-08-12T12:38:05.446Z,102009.44
2022-08-12T12:40:19.929Z,101981.66
2022-08-12T12:42:57.701Z,101988.97
2022-08-12T12:45:28.535Z,101980.47
2022-08-12T12:48:01.477Z,101967.16
2022-08-12T12:50:45.534Z,101979.16
2022-08-12T12:54:06.263Z,101984.59
2022-08-12T12:56:15.558Z,101980.09
2022-08-12T12:58:43.535Z,101951.75
2022-08-12T13:01:26.577Z,101961.47
2022-08-12T13:04:01.905Z,101989.94
2022-08-12T13:06:31.981Z,101992.94
2022-08-12T13:09:02.477Z,101950.75
2022-08-12T13:11:40.782Z,101953.88
2022-08-12T13:14:28.249Z,101958.56
2022-08-12T13:17:02.604Z,101956.00
2022-08-12T13:19:46.862Z,101928.34
2022-08-12T13:22:21.712Z,101936.81
2022-08-12T13:24:55.692Z,101918.34
2022-08-12T13:27:41.476Z,101950.81
2022-08-12T13:30:15.964Z,101925.41
2022-08-12T13:32:56.747Z,101932.94
2022-08-12T13:35:33.435Z,101975.78
2022-08-12T13:38:14.798Z,101972.00
2022-08-12T13:40:53.500Z,101960.34
2022-08-12T13:43:40.278Z,101920.25
2022-08-12T13:46:12.235Z,101931.44
2022-08-12T13:48:44.703Z,101949.44
2022-08-12T13:51:12.232Z,101924.72
2022-08-12T13:53:58.299Z,101965.09
2022-08-12T13:56:34.648Z,101932.81
2022-08-12T13:59:05.628Z,101898.34
2022-08-12T14:01:35.815Z,101933.84
2022-08-12T14:04:11.958Z,101920.59
2022-08-12T14:06:44.791Z,101897.94
2022-08-12T14:09:18.249Z,101905.53
2022-08-12T14:11:58.308Z,101884.41
2022-08-12T14:14:31.644Z,101892.41
2022-08-12T14:17:02.363Z,101892.09
2022-08-12T14:19:37.648Z,101909.56
2022-08-12T14:22:06.728Z,101913.63
2022-08-12T14:24:40.313Z,101900.63
2022-08-12T14:27:10.285Z,101882.91
2022-08-12T14:30:05.391Z,101889.38
2022-08-12T14:32:34.617Z,101904.66
2022-08-12T14:35:03.939Z,101888.53
2022-08-12T14:37:56.897Z,101890.75
2022-08-12T14:40:27.977Z,101899.66
2022-08-12T14:42:57.094Z,101912.66
2022-08-12T14:45:37.184Z,101892.25
2022-08-12T14:48:12.931Z,101858.97
2022-08-12T14:51:02.603Z,101864.84
2022-08-12T14:59:57.199Z,101857.16
2022-08-12T15:02:17.159Z,101851.28
2022-08-12T15:04:45.330Z,101856.25
2022-08-12T15:07:43.846Z,101876.44
2022-08-12T15:10:04.471Z,101865.13
2022-08-12T15:12:33.621Z,101872.56
2022-08-12T15:15:00.380Z,101862.03
2022-08-12T15:17:47.732Z,101857.75
2022-08-12T15:20:32.847Z,101820.94
2022-08-12T15:23:18.038Z,101809.88
2022-08-12T15:26:02.720Z,101832.88
2022-08-12T15:28:32.965Z,101839.13
2022-08-12T15:31:00.804Z,101824.31
2022-08-12T15:33:44.749Z,101842.38
2022-08-12T15:36:14.790Z,101878.84
2022-08-12T15:38:46.432Z,101840.72
2022-08-12T15:41:14.831Z,101862.75
2022-08-12T15:44:15.823Z,101846.53
2022-08-12T15:46:32.320Z,101849.09
2022-08-12T15:48:59.328Z,101818.56
2022-08-12T15:51:59.445Z,101845.13
2022-08-12T15:54:34.312Z,101850.06
2022-08-12T15:57:08.317Z,101833.81
2022-08-12T16:00:03.950Z,101859.53
2022-08-12T16:02:26.975Z,101876.47
2022-08-12T16:04:54.071Z,101873.97
2022-08-12T16:07:30.284Z,101873.13
2022-08-12T16:10:05.795Z,101847.03
2022-08-12T16:12:54.657Z,101831.91
2022-08-12T16:15:29.345Z,101823.84
2022-08-12T16:18:15.098Z,101808.03
2022-08-12T16:20:47.294Z,101823.25
2022-08-12T16:23:36.006Z,101814.19
2022-08-12T16:26:14.719Z,101791.66
2022-08-12T16:28:47.398Z,101809.34
2022-08-12T16:31:22.792Z,101810.00
2022-08-12T16:33:56.819Z,101829.34
2022-08-12T16:36:29.019Z,101841.94
2022-08-12T16:38:55.765Z,101806.13
2022-08-12T16:41:23.442Z,101805.56
2022-08-12T16:43:50.538Z,101789.38
2022-08-12T16:46:32.023Z,101814.22
2022-08-12T16:49:09.146Z,101798.63
2022-08-12T16:51:46.595Z,101802.25
2022-08-12T16:54:16.509Z,101773.63
2022-08-12T16:56:50.610Z,101795.50
2022-08-12T16:59:21.879Z,101802.63
2022-08-12T17:01:49.652Z,101794.56
2022-08-12T17:04:17.641Z,101786.91
2022-08-12T17:06:47.793Z,101792.91
2022-08-12T17:09:17.303Z,101804.88
2022-08-12T17:11:49.328Z,101809.97
2022-08-12T17:14:17.555Z,101804.22
2022-08-12T17:16:52.254Z,101785.31
2022-08-12T17:19:20.615Z,101793.88
2022-08-12T17:22:09.766Z,101784.22
2022-08-12T17:24:43.745Z,101771.84
2022-08-12T17:27:16.274Z,101782.44
2022-08-12T17:30:02.814Z,101792.00
2022-08-12T17:32:33.676Z,101814.78
2022-08-12T17:35:19.912Z,101818.91
2022-08-12T17:37:48.697Z,101820.78
2022-08-12T17:40:34.738Z,101844.34
2022-08-12T17:43:51.990Z,101844.97
2022-08-12T17:45:53.304Z,101849.28
2022-08-12T17:48:21.816Z,101852.66
2022-08-12T17:50:50.853Z,101869.28
2022-08-12T17:53:19.432Z,101870.53
2022-08-12T17:55:52.223Z,101898.44
2022-08-12T17:58:37.634Z,101900.09
2022-08-12T18:01:05.961Z,101904.31
2022-08-12T18:03:58.296Z,101916.22
2022-08-12T18:06:28.000Z,101919.84
2022-08-12T18:08:58.753Z,101928.06
2022-08-12T18:15:08.724Z,101938.97
2022-08-12T18:17:39.264Z,101967.88
2022-08-12T18:20:15.498Z,101965.41
2022-08-12T18:22:47.615Z,101977.13
2022-08-12T18:26:13.987Z,101984.91
2022-08-12T18:28:30.654Z,101983.00
2022-08-12T18:31:03.019Z,101984.78
2022-08-12T18:33:44.037Z,101985.66
2022-08-12T18:36:14.285Z,102000.50
2022-08-12T18:38:53.147Z,101991.59
2022-08-12T18:41:33.669Z,101947.59
2022-08-12T18:44:10.771Z,101926.91
2022-08-12T18:46:54.469Z,101940.38
2022-08-12T18:49:38.049Z,101950.09
2022-08-12T18:52:11.983Z,101947.19
2022-08-12T18:54:54.057Z,101964.78
2022-08-12T18:58:05.690Z,101966.50
2022-08-12T19:00:22.960Z,101974.84
2022-08-12T19:02:53.724Z,101979.38
2022-08-12T19:05:52.732Z,101979.38
2022-08-12T19:08:12.723Z,101988.19
2022-08-12T19:10:42.897Z,101993.59
2022-08-12T19:13:37.706Z,102003.13
2022-08-12T19:16:11.252Z,102013.69
2022-08-12T19:18:40.954Z,102018.53
2022-08-12T19:21:16.282Z,102018.78
2022-08-12T19:24:04.828Z,102028.25
2022-08-12T19:26:36.571Z,102024.34
2022-08-12T19:29:07.048Z,102033.69
2022-08-12T19:31:58.225Z,102037.06
2022-08-12T19:35:32.824Z,102033.88
2022-08-12T19:38:02.830Z,102032.16
2022-08-12T19:40:32.855Z,102035.97
2022-08-12T19:43:20.696Z,102028.47
2022-08-12T19:45:56.271Z,102038.94
2022-08-12T19:48:27.962Z,102034.22
2022-08-12T19:50:57.903Z,102025.28
2022-08-12T19:53:25.267Z,102032.94
2022-08-12T19:55:56.406Z,102033.88
2022-08-12T19:58:32.846Z,102038.31
2022-08-12T20:00:59.972Z,102040.03
2022-08-12T20:03:40.069Z,102036.19
2022-08-12T20:06:13.884Z,102030.66
2022-08-12T20:08:47.925Z,102036.50
2022-08-12T20:12:11.272Z,102033.63
2022-08-12T20:14:11.544Z,102040.69
2022-08-12T20:16:52.529Z,102043.03
2022-08-12T20:19:52.299Z,102043.09
2022-08-12T20:22:23.411Z,102034.31
2022-08-12T20:24:55.121Z,102042.56
2022-08-12T20:27:53.747Z,102045.69
2022-08-12T20:30:14.144Z,102038.88
2022-08-12T20:33:01.790Z,102053.13
2022-08-12T20:36:06.275Z,102043.09
2022-08-12T20:38:27.167Z,102041.22
2022-08-12T20:40:55.722Z,102046.03
2022-08-12T20:43:23.962Z,102045.31
2022-08-12T20:45:57.345Z,102054.56
2022-08-12T20:48:28.781Z,102049.66
2022-08-12T20:51:04.391Z,102043.81
2022-08-12T20:53:57.591Z,102054.28
2022-08-12T20:56:30.911Z,102051.78
2022-08-12T20:58:59.933Z,102049.56
2022-08-12T21:01:46.216Z,102060.28
2022-08-12T21:04:35.333Z,102054.56
2022-08-12T21:07:09.371Z,102048.97
2022-08-12T21:09:48.747Z,102049.72
2022-08-12T21:12:27.653Z,102050.56
2022-08-12T21:15:23.861Z,102052.56
2022-08-12T21:18:11.094Z,102055.63
2022-08-12T21:20:52.511Z,102052.69
2022-08-12T21:23:21.373Z,102060.41
2022-08-12T21:25:49.291Z,102056.75
2022-08-12T21:28:20.583Z,102052.09
2022-08-12T21:31:11.088Z,102063.00
2022-08-12T21:33:58.661Z,102057.28
2022-08-12T21:36:34.351Z,102057.91
2022-08-12T21:39:20.663Z,102070.59
2022-08-12T21:41:53.616Z,102066.31
2022-08-12T21:45:44.682Z,102062.91
2022-08-12T21:47:21.070Z,102065.44
2022-08-12T21:50:06.460Z,102068.78
2022-08-12T21:52:42.301Z,102069.78
2022-08-12T21:55:17.919Z,102064.59
2022-08-12T21:57:53.241Z,102073.59
2022-08-12T22:00:33.603Z,102077.09
2022-08-12T22:04:03.868Z,102069.91
2022-08-12T22:06:20.343Z,102069.78
2022-08-12T22:08:59.511Z,102059.63
2022-08-12T22:11:40.961Z,102070.28
2022-08-12T22:14:10.340Z,102064.06
2022-08-12T22:16:50.200Z,102063.56
2022-08-12T22:19:21.102Z,102073.38
2022-08-12T22:21:54.791Z,102070.78
2022-08-12T22:24:27.019Z,102068.16
2022-08-12T22:27:32.032Z,102071.66
2022-08-12T22:30:16.776Z,102070.28
2022-08-12T22:32:51.027Z,102055.03
2022-08-12T22:35:56.638Z,102060.19
2022-08-12T22:38:23.798Z,102067.19
2022-08-12T22:40:53.954Z,102059.78
2022-08-12T22:44:01.157Z,102058.91
2022-08-12T22:46:52.696Z,102047.28
2022-08-12T22:49:48.902Z,102048.81
2022-08-12T22:52:14.022Z,102043.94
2022-08-12T22:54:46.439Z,102046.94
2022-08-12T22:57:53.461Z,102044.94
2022-08-12T23:00:23.920Z,102039.94
2022-08-12T23:03:03.402Z,102039.59
2022-08-12T23:05:56.542Z,102033.59
2022-08-12T23:08:29.931Z,102036.19
2022-08-12T23:11:00.101Z,102039.69
2022-08-12T23:13:45.891Z,102033.94
2022-08-12T23:16:28.031Z,102030.47
2022-08-12T23:19:09.939Z,102029.47
2022-08-12T23:22:05.588Z,102031.84
2022-08-12T23:24:36.845Z,102027.59
2022-08-12T23:27:24.004Z,102023.97
2022-08-12T23:30:19.478Z,102026.72
2022-08-12T23:32:54.817Z,102031.88
2022-08-12T23:35:45.380Z,102029.13
2022-08-12T23:38:30.218Z,102019.16
2022-08-12T23:40:58.109Z,102008.69
2022-08-12T23:43:25.543Z,102003.19
2022-08-12T23:46:00.794Z,102010.03
2022-08-12T23:48:31.758Z,102009.38
2022-08-12T23:51:01.574Z,102017.75
2022-08-12T23:53:32.409Z,102004.63
2022-08-12T23:55:59.553Z,102005.38
2022-08-12T23:58:28.213Z,101998.44
